Time;durP1;ratioP1;P1;durP2;ratioP2;P2;SDS_P1;SDS_P2;PMS_P1;PMS_P2;Temp;Humidity;BMP_temperature;BMP_pressure;BME280_temperature;BME280_humidity;BME280_pressure;Samples;Min_cycle;Max_cycle;Signal;HPM_P1;HPM_P2
2024/02/14 00:00:28;;;;;;;52.30;27.10;;;;;;;-128.00;-1.00;-1.00;103228;1255;1004894;-75
2024/02/14 00:03:14;;;;;;;50.40;25.80;;;;;;;-128.00;-1.00;-1.00;103248;1254;1058385;-75
2024/02/14 00:05:40;;;;;;;42.50;23.10;;;;;;;-128.00;-1.00;-1.00;103171;1253;1005326;-75
2024/02/14 00:08:07;;;;;;;39.70;20.80;;;;;;;-128.00;-1.00;-1.00;103103;1254;1003968;-79
2024/02/14 00:10:33;;;;;;;36.30;20.70;;;;;;;-128.00;-1.00;-1.00;103142;1255;1004266;-79
2024/02/14 00:13:00;;;;;;;41.10;23.70;;;;;;;-128.00;-1.00;-1.00;103166;1253;1006245;-76
2024/02/14 00:15:27;;;;;;;42.60;24.20;;;;;;;-128.00;-1.00;-1.00;103104;1253;1005005;-75
2024/02/14 00:17:53;;;;;;;40.50;22.30;;;;;;;-128.00;-1.00;-1.00;103160;1254;1005761;-75
2024/02/14 00:20:19;;;;;;;46.00;22.00;;;;;;;-128.00;-1.00;-1.00;103187;1254;1004668;-80
2024/02/14 00:22:46;;;;;;;38.30;21.50;;;;;;;-128.00;-1.00;-1.00;104001;1254;1004608;-79
2024/02/14 00:25:13;;;;;;;36.40;21.90;;;;;;;-128.00;-1.00;-1.00;103920;1252;1004441;-76
2024/02/14 00:27:40;;;;;;;35.00;21.00;;;;;;;-128.00;-1.00;-1.00;103627;1254;1004973;-80
2024/02/14 00:30:07;;;;;;;36.30;20.10;;;;;;;-128.00;-1.00;-1.00;103587;1254;1004069;-75
2024/02/14 00:32:33;;;;;;;35.70;19.80;;;;;;;-128.00;-1.00;-1.00;104952;1254;1004435;-79
2024/02/14 00:35:00;;;;;;;38.30;20.30;;;;;;;-128.00;-1.00;-1.00;105674;1254;1003632;-79
2024/02/14 00:37:27;;;;;;;34.30;19.50;;;;;;;-128.00;-1.00;-1.00;105667;1257;1004260;-75
2024/02/14 00:39:53;;;;;;;39.00;19.10;;;;;;;-128.00;-1.00;-1.00;104107;1253;1004512;-80
2024/02/14 00:42:20;;;;;;;37.30;20.30;;;;;;;-128.00;-1.00;-1.00;103299;1252;1004687;-75
2024/02/14 00:44:47;;;;;;;37.20;19.70;;;;;;;-128.00;-1.00;-1.00;103278;1255;1004201;-80
2024/02/14 00:47:13;;;;;;;44.90;21.00;;;;;;;-128.00;-1.00;-1.00;103278;1254;1005497;-75
2024/02/14 00:49:39;;;;;;;43.70;22.60;;;;;;;-128.00;-1.00;-1.00;103260;1252;1004452;-80
2024/02/14 00:52:06;;;;;;;40.00;22.30;;;;;;;-128.00;-1.00;-1.00;103279;1252;1005150;-79
2024/02/14 00:54:33;;;;;;;47.80;24.90;;;;;;;-128.00;-1.00;-1.00;103295;1254;1005321;-75
2024/02/14 00:56:59;;;;;;;44.80;22.90;;;;;;;-128.00;-1.00;-1.00;103245;1253;1005176;-80
2024/02/14 00:59:25;;;;;;;43.80;22.30;;;;;;;-128.00;-1.00;-1.00;103270;1254;1005302;-80
2024/02/14 01:01:52;;;;;;;44.60;22.00;;;;;;;-128.00;-1.00;-1.00;103285;1253;1004657;-79
2024/02/14 01:04:18;;;;;;;40.60;22.80;;;;;;;-128.00;-1.00;-1.00;103258;1253;1004152;-75
2024/02/14 01:06:45;;;;;;;45.40;24.00;;;;;;;-128.00;-1.00;-1.00;103237;1254;1004427;-76
2024/02/14 01:09:11;;;;;;;44.90;24.00;;;;;;;-128.00;-1.00;-1.00;103248;1254;1004007;-80
2024/02/14 01:11:38;;;;;;;49.50;25.40;;;;;;;-128.00;-1.00;-1.00;103279;1254;1004169;-79
2024/02/14 01:14:04;;;;;;;47.60;24.10;;;;;;;-128.00;-1.00;-1.00;103252;1253;1004674;-75
2024/02/14 01:16:31;;;;;;;45.90;23.10;;;;;;;-128.00;-1.00;-1.00;103186;1256;1004605;-77
2024/02/14 01:18:57;;;;;;;52.50;25.50;;;;;;;-128.00;-1.00;-1.00;103248;1254;1004805;-75
2024/02/14 01:21:24;;;;;;;48.90;26.90;;;;;;;-128.00;-1.00;-1.00;103245;1253;1004100;-75
2024/02/14 01:23:52;;;;;;;48.40;24.70;;;;;;;-128.00;-1.00;-1.00;103258;1254;1004570;-80
2024/02/14 01:26:18;;;;;;;50.50;26.70;;;;;;;-128.00;-1.00;-1.00;103221;1254;1005587;-75
2024/02/14 01:28:45;;;;;;;45.90;25.10;;;;;;;-128.00;-1.00;-1.00;103314;1252;1005104;-79
2024/02/14 01:31:11;;;;;;;49.40;24.80;;;;;;;-128.00;-1.00;-1.00;103218;1253;1005396;-79
2024/02/14 01:33:40;;;;;;;47.10;25.50;;;;;;;-128.00;-1.00;-1.00;103287;1252;1005394;-79
2024/02/14 01:36:06;;;;;;;62.30;28.20;;;;;;;-128.00;-1.00;-1.00;103264;1254;1004704;-80
2024/02/14 01:38:35;;;;;;;50.70;25.10;;;;;;;-128.00;-1.00;-1.00;103306;1254;1004798;-79
2024/02/14 01:41:02;;;;;;;;;;;;;;;-128.00;-1.00;-1.00;103268;1254;1059022;-79
2024/02/14 01:43:30;;;;;;;56.60;27.80;;;;;;;-128.00;-1.00;-1.00;103307;1253;1004424;-80
2024/02/14 01:46:15;;;;;;;55.30;26.80;;;;;;;-128.00;-1.00;-1.00;103348;1256;1005158;-75
2024/02/14 01:48:42;;;;;;;51.90;26.80;;;;;;;-128.00;-1.00;-1.00;103257;1253;1047149;-80
2024/02/14 01:51:10;;;;;;;45.60;23.10;;;;;;;-128.00;-1.00;-1.00;103377;1254;1005744;-80
2024/02/14 01:53:37;;;;;;;40.40;23.20;;;;;;;-128.00;-1.00;-1.00;103306;1254;1005115;-79
2024/02/14 01:56:05;;;;;;;48.00;22.80;;;;;;;-128.00;-1.00;-1.00;103261;1254;1004916;-79
2024/02/14 01:58:32;;;;;;;49.10;25.70;;;;;;;-128.00;-1.00;-1.00;103222;1254;1004270;-79
2024/02/14 02:00:59;;;;;;;53.40;25.50;;;;;;;-128.00;-1.00;-1.00;103316;1254;1004479;-75
2024/02/14 02:03:25;;;;;;;47.20;26.10;;;;;;;-128.00;-1.00;-1.00;103297;1253;1004412;-75
2024/02/14 02:05:53;;;;;;;45.00;24.60;;;;;;;-128.00;-1.00;-1.00;103195;1252;1004416;-80
2024/02/14 02:08:20;;;;;;;50.60;26.30;;;;;;;-128.00;-1.00;-1.00;103208;1253;1004841;-75
2024/02/14 02:10:47;;;;;;;46.50;22.30;;;;;;;-128.00;-1.00;-1.00;103298;1253;1004052;-80
2024/02/14 02:13:15;;;;;;;43.10;23.70;;;;;;;-128.00;-1.00;-1.00;103309;1254;1005554;-76
2024/02/14 02:15:44;;;;;;;38.10;23.00;;;;;;;-128.00;-1.00;-1.00;103343;1253;1005244;-80
2024/02/14 02:18:11;;;;;;;47.60;24.10;;;;;;;-128.00;-1.00;-1.00;105456;1254;1058504;-75
2024/02/14 02:20:38;;;;;;;47.60;24.80;;;;;;;-128.00;-1.00;-1.00;103251;1254;1004590;-80
2024/02/14 02:23:05;;;;;;;50.70;26.60;;;;;;;-128.00;-1.00;-1.00;103291;1254;1006307;-80
2024/02/14 02:25:31;;;;;;;47.70;25.30;;;;;;;-128.00;-1.00;-1.00;103316;1254;1004494;-79
2024/02/14 02:27:58;;;;;;;47.40;27.60;;;;;;;-128.00;-1.00;-1.00;103286;1252;1004148;-80
2024/02/14 02:30:25;;;;;;;57.00;27.80;;;;;;;-128.00;-1.00;-1.00;103253;1254;1005148;-76
2024/02/14 02:32:51;;;;;;;48.70;27.10;;;;;;;-128.00;-1.00;-1.00;103225;1253;1004472;-75
2024/02/14 02:35:21;;;;;;;42.20;23.50;;;;;;;-128.00;-1.00;-1.00;103264;1253;1004305;-75
2024/02/14 02:37:50;;;;;;;42.90;25.60;;;;;;;-128.00;-1.00;-1.00;103311;1253;1047928;-75
2024/02/14 02:40:17;;;;;;;43.70;24.50;;;;;;;-128.00;-1.00;-1.00;103282;1254;1062701;-74
2024/02/14 02:42:45;;;;;;;43.00;22.90;;;;;;;-128.00;-1.00;-1.00;103303;1254;1003679;-75
2024/02/14 02:45:11;;;;;;;48.70;24.00;;;;;;;-128.00;-1.00;-1.00;103216;1254;1004577;-76
2024/02/14 02:47:38;;;;;;;43.10;22.60;;;;;;;-128.00;-1.00;-1.00;103278;1254;1004266;-75
2024/02/14 02:50:05;;;;;;;38.20;21.90;;;;;;;-128.00;-1.00;-1.00;103182;1254;1004697;-79
2024/02/14 02:52:32;;;;;;;39.20;22.00;;;;;;;-128.00;-1.00;-1.00;103284;1253;1005043;-79
2024/02/14 02:55:00;;;;;;;42.90;23.30;;;;;;;-128.00;-1.00;-1.00;103302;1253;1003617;-79
2024/02/14 02:57:28;;;;;;;42.20;24.20;;;;;;;-128.00;-1.00;-1.00;103306;1253;1005181;-79
2024/02/14 02:59:54;;;;;;;40.40;23.40;;;;;;;-128.00;-1.00;-1.00;103243;1255;1004353;-79
2024/02/14 03:02:20;;;;;;;44.20;23.90;;;;;;;-128.00;-1.00;-1.00;103316;1253;1004082;-75
2024/02/14 03:04:47;;;;;;;40.30;20.40;;;;;;;-128.00;-1.00;-1.00;103281;1253;1005231;-79
2024/02/14 03:07:14;;;;;;;38.40;20.90;;;;;;;-128.00;-1.00;-1.00;103301;1253;1004179;-75
2024/02/14 03:09:41;;;;;;;42.30;21.90;;;;;;;-128.00;-1.00;-1.00;105577;1253;1004566;-79
2024/02/14 03:12:08;;;;;;;51.00;28.70;;;;;;;-128.00;-1.00;-1.00;103308;1253;1004862;-80
2024/02/14 03:14:36;;;;;;;45.50;26.60;;;;;;;-128.00;-1.00;-1.00;103291;1254;1004868;-79
2024/02/14 03:17:02;;;;;;;43.10;22.30;;;;;;;-128.00;-1.00;-1.00;103266;1254;1004722;-75
2024/02/14 03:19:30;;;;;;;48.00;24.00;;;;;;;-128.00;-1.00;-1.00;103304;1253;1004137;-75
2024/02/14 03:21:56;;;;;;;39.50;23.10;;;;;;;-128.00;-1.00;-1.00;103277;1253;1004506;-74
2024/02/14 03:24:25;;;;;;;46.80;22.60;;;;;;;-128.00;-1.00;-1.00;103168;1254;1003926;-79
2024/02/14 03:26:53;;;;;;;44.20;23.00;;;;;;;-128.00;-1.00;-1.00;103303;1253;1047147;-79
2024/02/14 03:29:21;;;;;;;71.30;31.20;;;;;;;-128.00;-1.00;-1.00;103314;1253;1005084;-79
2024/02/14 03:31:47;;;;;;;47.10;26.50;;;;;;;-128.00;-1.00;-1.00;105658;1253;1004845;-75
2024/02/14 03:34:14;;;;;;;44.70;23.50;;;;;;;-128.00;-1.00;-1.00;105670;1252;1004290;-79
2024/02/14 03:36:40;;;;;;;40.80;22.60;;;;;;;-128.00;-1.00;-1.00;105651;1252;1003470;-75
2024/02/14 03:39:08;;;;;;;41.30;23.00;;;;;;;-128.00;-1.00;-1.00;105627;1252;1004045;-75
2024/02/14 03:41:34;;;;;;;42.90;23.10;;;;;;;-128.00;-1.00;-1.00;105634;1252;1003447;-80
2024/02/14 03:44:03;;;;;;;36.40;20.40;;;;;;;-128.00;-1.00;-1.00;105657;1252;1003948;-75
2024/02/14 03:46:30;;;;;;;40.50;21.50;;;;;;;-128.00;-1.00;-1.00;105649;1252;1003276;-75
2024/02/14 03:48:57;;;;;;;43.30;23.00;;;;;;;-128.00;-1.00;-1.00;105664;1253;1004438;-75
2024/02/14 03:51:24;;;;;;;43.70;22.60;;;;;;;-128.00;-1.00;-1.00;105642;1252;1004356;-75
2024/02/14 03:53:50;;;;;;;48.10;24.40;;;;;;;-128.00;-1.00;-1.00;103875;1252;1004128;-75
2024/02/14 03:56:17;;;;;;;38.30;21.00;;;;;;;-128.00;-1.00;-1.00;103281;1252;1004701;-79
2024/02/14 03:58:43;;;;;;;36.60;21.50;;;;;;;-128.00;-1.00;-1.00;103241;1252;1003523;-74
2024/02/14 04:01:10;;;;;;;38.70;21.30;;;;;;;-128.00;-1.00;-1.00;103269;1253;1004743;-79
2024/02/14 04:03:37;;;;;;;43.20;21.50;;;;;;;-128.00;-1.00;-1.00;103242;1256;1004169;-74
2024/02/14 04:06:03;;;;;;;36.00;20.10;;;;;;;-128.00;-1.00;-1.00;103305;1253;1005025;-79
2024/02/14 04:08:29;;;;;;;35.10;20.20;;;;;;;-128.00;-1.00;-1.00;103252;1253;1005629;-80
2024/02/14 04:10:56;;;;;;;40.70;22.80;;;;;;;-128.00;-1.00;-1.00;103318;1252;1004335;-75
2024/02/14 04:13:23;;;;;;;43.70;22.20;;;;;;;-128.00;-1.00;-1.00;103403;1253;1004245;-79
2024/02/14 04:15:49;;;;;;;36.50;21.20;;;;;;;-128.00;-1.00;-1.00;103390;1251;1005874;-75
2024/02/14 04:18:17;;;;;;;40.00;21.00;;;;;;;-128.00;-1.00;-1.00;103339;1253;1004954;-75
2024/02/14 04:20:44;;;;;;;40.00;21.80;;;;;;;-128.00;-1.00;-1.00;103202;1252;1004324;-75
2024/02/14 04:23:10;;;;;;;49.50;24.20;;;;;;;-128.00;-1.00;-1.00;103260;1253;1004636;-79
2024/02/14 04:25:37;;;;;;;44.10;22.40;;;;;;;-128.00;-1.00;-1.00;103316;1252;1004656;-79
2024/02/14 04:28:03;;;;;;;45.40;25.50;;;;;;;-128.00;-1.00;-1.00;103329;1253;1005410;-75
2024/02/14 04:30:30;;;;;;;37.40;20.80;;;;;;;-128.00;-1.00;-1.00;103358;1253;1005285;-75
2024/02/14 04:32:56;;;;;;;40.90;22.80;;;;;;;-128.00;-1.00;-1.00;103363;1252;1003746;-75
2024/02/14 04:35:22;;;;;;;38.80;21.50;;;;;;;-128.00;-1.00;-1.00;103321;1253;1005474;-81
2024/02/14 04:37:49;;;;;;;34.70;19.30;;;;;;;-128.00;-1.00;-1.00;103389;1253;1004180;-77
2024/02/14 04:40:15;;;;;;;37.30;19.80;;;;;;;-128.00;-1.00;-1.00;103363;1253;1004836;-79
2024/02/14 04:42:42;;;;;;;38.00;20.80;;;;;;;-128.00;-1.00;-1.00;103384;1253;1004749;-80
2024/02/14 04:45:09;;;;;;;39.50;21.20;;;;;;;-128.00;-1.00;-1.00;103364;1252;1004665;-75
2024/02/14 04:47:35;;;;;;;43.70;21.20;;;;;;;-128.00;-1.00;-1.00;103329;1253;1004385;-79
2024/02/14 04:50:03;;;;;;;32.80;17.90;;;;;;;-128.00;-1.00;-1.00;105276;1252;1005042;-80
2024/02/14 04:52:30;;;;;;;36.10;20.50;;;;;;;-128.00;-1.00;-1.00;105639;1252;1003945;-75
2024/02/14 04:54:57;;;;;;;42.80;18.70;;;;;;;-128.00;-1.00;-1.00;105649;1253;1004483;-74
2024/02/14 04:57:23;;;;;;;39.60;20.30;;;;;;;-128.00;-1.00;-1.00;105667;1252;1004164;-79
2024/02/14 04:59:49;;;;;;;43.80;20.20;;;;;;;-128.00;-1.00;-1.00;104081;1252;1004930;-75
2024/02/14 05:02:16;;;;;;;34.40;19.30;;;;;;;-128.00;-1.00;-1.00;103262;1253;1004450;-75
2024/02/14 05:04:43;;;;;;;45.20;22.20;;;;;;;-128.00;-1.00;-1.00;103204;1253;1004184;-79
2024/02/14 05:07:09;;;;;;;37.00;22.40;;;;;;;-128.00;-1.00;-1.00;103256;1253;1004401;-81
2024/02/14 05:09:36;;;;;;;35.00;19.00;;;;;;;-128.00;-1.00;-1.00;103180;1253;1005446;-79
2024/02/14 05:12:03;;;;;;;40.50;21.00;;;;;;;-128.00;-1.00;-1.00;103176;1253;1004070;-79
2024/02/14 05:14:31;;;;;;;52.40;27.40;;;;;;;-128.00;-1.00;-1.00;104690;1253;1004147;-79
2024/02/14 05:16:57;;;;;;;52.90;28.30;;;;;;;-128.00;-1.00;-1.00;105564;1253;1004827;-79
2024/02/14 05:19:24;;;;;;;58.00;28.10;;;;;;;-128.00;-1.00;-1.00;105575;1253;1004858;-79
2024/02/14 05:21:50;;;;;;;44.60;22.60;;;;;;;-128.00;-1.00;-1.00;105529;1253;1004006;-75
2024/02/14 05:24:19;;;;;;;35.50;20.60;;;;;;;-128.00;-1.00;-1.00;105568;1253;1004889;-75
2024/02/14 05:26:45;;;;;;;39.20;21.40;;;;;;;-128.00;-1.00;-1.00;105606;1253;1044547;-75
2024/02/14 05:29:12;;;;;;;35.40;18.10;;;;;;;-128.00;-1.00;-1.00;105608;1253;1004047;-79
2024/02/14 05:31:45;;;;;;;37.30;18.90;;;;;;;-128.00;-1.00;-1.00;105599;1253;1004172;-75
2024/02/14 05:34:11;;;;;;;32.20;18.60;;;;;;;-128.00;-1.00;-1.00;103703;1257;1058611;-75
2024/02/14 05:36:38;;;;;;;33.50;17.90;;;;;;;-128.00;-1.00;-1.00;103188;1253;1004766;-75
2024/02/14 05:39:07;;;;;;;40.70;21.10;;;;;;;-128.00;-1.00;-1.00;103166;1253;1003990;-79
2024/02/14 05:41:35;;;;;;;49.10;25.60;;;;;;;-128.00;-1.00;-1.00;103198;1253;1048347;-79
2024/02/14 05:44:01;;;;;;;59.30;27.00;;;;;;;-128.00;-1.00;-1.00;103675;1253;1004226;-75
2024/02/14 05:46:28;;;;;;;48.10;27.50;;;;;;;-128.00;-1.00;-1.00;105440;1253;1003350;-75
2024/02/14 05:48:57;;;;;;;47.60;24.70;;;;;;;-128.00;-1.00;-1.00;105553;1253;1003853;-75
2024/02/14 05:51:24;;;;;;;39.20;20.90;;;;;;;-128.00;-1.00;-1.00;104425;1253;1046288;-79
2024/02/14 05:53:50;;;;;;;32.20;17.10;;;;;;;-128.00;-1.00;-1.00;104029;1253;1004671;-75
2024/02/14 05:56:16;;;;;;;28.40;16.70;;;;;;;-128.00;-1.00;-1.00;105557;1253;1004018;-79
2024/02/14 05:58:43;;;;;;;34.60;16.80;;;;;;;-128.00;-1.00;-1.00;105563;1253;1004555;-74
2024/02/14 06:01:09;;;;;;;28.10;14.50;;;;;;;-128.00;-1.00;-1.00;105578;1253;1003765;-74
2024/02/14 06:03:36;;;;;;;29.60;14.70;;;;;;;-128.00;-1.00;-1.00;105548;1253;1003531;-75
2024/02/14 06:06:02;;;;;;;25.50;12.20;;;;;;;-128.00;-1.00;-1.00;105621;1252;1004164;-79
2024/02/14 06:08:29;;;;;;;30.30;13.00;;;;;;;-128.00;-1.00;-1.00;105303;1253;1004459;-74
2024/02/14 06:10:55;;;;;;;25.30;13.90;;;;;;;-128.00;-1.00;-1.00;103305;1253;1004197;-74
2024/02/14 06:13:21;;;;;;;25.40;12.50;;;;;;;-128.00;-1.00;-1.00;103672;1253;1004033;-79
2024/02/14 06:15:48;;;;;;;21.90;12.50;;;;;;;-128.00;-1.00;-1.00;103471;1253;1004554;-75
2024/02/14 06:18:15;;;;;;;26.40;12.30;;;;;;;-128.00;-1.00;-1.00;103356;1252;1004303;-79
2024/02/14 06:20:42;;;;;;;29.20;15.60;;;;;;;-128.00;-1.00;-1.00;103404;1253;1003683;-79
2024/02/14 06:23:09;;;;;;;28.00;14.30;;;;;;;-128.00;-1.00;-1.00;104106;1251;1005185;-74
2024/02/14 06:25:35;;;;;;;23.50;13.40;;;;;;;-128.00;-1.00;-1.00;105579;1253;1003825;-75
2024/02/14 06:28:02;;;;;;;23.40;13.40;;;;;;;-128.00;-1.00;-1.00;105597;1252;1004419;-79
2024/02/14 06:30:28;;;;;;;23.80;13.90;;;;;;;-128.00;-1.00;-1.00;105603;1252;1003618;-79
2024/02/14 06:32:56;;;;;;;31.20;14.30;;;;;;;-128.00;-1.00;-1.00;105594;1252;1004999;-79
2024/02/14 06:35:22;;;;;;;30.10;15.10;;;;;;;-128.00;-1.00;-1.00;105594;1253;1004861;-75
2024/02/14 06:37:48;;;;;;;25.90;14.40;;;;;;;-128.00;-1.00;-1.00;105632;1251;1004454;-79
2024/02/14 06:40:15;;;;;;;31.20;15.40;;;;;;;-128.00;-1.00;-1.00;105588;1255;1004690;-75
2024/02/14 06:42:42;;;;;;;28.30;15.30;;;;;;;-128.00;-1.00;-1.00;105589;1253;1004824;-79
2024/02/14 06:45:08;;;;;;;28.40;15.10;;;;;;;-128.00;-1.00;-1.00;105664;1252;1004978;-75
2024/02/14 06:47:35;;;;;;;31.10;17.20;;;;;;;-128.00;-1.00;-1.00;105605;1252;1003676;-80
2024/02/14 06:50:01;;;;;;;31.40;16.50;;;;;;;-128.00;-1.00;-1.00;105230;1253;1004093;-79
2024/02/14 06:52:28;;;;;;;31.40;16.80;;;;;;;-128.00;-1.00;-1.00;105687;1252;1004152;-74
2024/02/14 06:54:54;;;;;;;27.40;15.40;;;;;;;-128.00;-1.00;-1.00;105629;1252;1004929;-75
2024/02/14 06:57:21;;;;;;;34.30;16.20;;;;;;;-128.00;-1.00;-1.00;105595;1253;1004757;-74
2024/02/14 06:59:48;;;;;;;32.70;17.50;;;;;;;-128.00;-1.00;-1.00;105534;1252;1004435;-74
2024/02/14 07:02:14;;;;;;;34.30;17.50;;;;;;;-128.00;-1.00;-1.00;105601;1252;1005161;-74
2024/02/14 07:04:41;;;;;;;30.30;16.80;;;;;;;-128.00;-1.00;-1.00;105615;1253;1003717;-74
2024/02/14 07:07:07;;;;;;;36.10;18.70;;;;;;;-128.00;-1.00;-1.00;105575;1252;1004755;-74
2024/02/14 07:09:36;;;;;;;33.20;17.30;;;;;;;-128.00;-1.00;-1.00;105544;1252;1004593;-75
2024/02/14 07:12:03;;;;;;;36.80;17.50;;;;;;;-128.00;-1.00;-1.00;105499;1253;1059140;-80
2024/02/14 07:14:29;;;;;;;30.00;16.60;;;;;;;-128.00;-1.00;-1.00;104343;1253;1004465;-74
2024/02/14 07:16:56;;;;;;;35.10;19.70;;;;;;;-128.00;-1.00;-1.00;103689;1253;1005266;-80
2024/02/14 07:19:22;;;;;;;42.40;22.20;;;;;;;-128.00;-1.00;-1.00;104679;1253;1004074;-74
2024/02/14 07:21:48;;;;;;;43.70;25.50;;;;;;;-128.00;-1.00;-1.00;105594;1253;1004738;-79
2024/02/14 07:24:15;;;;;;;46.80;24.00;;;;;;;-128.00;-1.00;-1.00;105639;1252;1004957;-74
2024/02/14 07:26:44;;;;;;;37.90;23.00;;;;;;;-128.00;-1.00;-1.00;105526;1253;1003493;-79
2024/02/14 07:29:10;;;;;;;47.60;26.60;;;;;;;-128.00;-1.00;-1.00;105579;1252;1046154;-80
2024/02/14 07:31:37;;;;;;;47.80;24.60;;;;;;;-128.00;-1.00;-1.00;105337;1252;1004897;-74
2024/02/14 07:34:03;;;;;;;50.00;27.10;;;;;;;-128.00;-1.00;-1.00;104767;1252;1005006;-74
2024/02/14 07:36:30;;;;;;;47.40;25.30;;;;;;;-128.00;-1.00;-1.00;105613;1252;1003911;-75
2024/02/14 07:38:56;;;;;;;45.30;25.70;;;;;;;-128.00;-1.00;-1.00;105577;1252;1004097;-75
2024/02/14 07:41:23;;;;;;;40.10;24.60;;;;;;;-128.00;-1.00;-1.00;105536;1252;1004824;-75
2024/02/14 07:43:49;;;;;;;45.00;24.50;;;;;;;-128.00;-1.00;-1.00;105602;1251;1003675;-74
2024/02/14 07:46:19;;;;;;;49.30;26.00;;;;;;;-128.00;-1.00;-1.00;105609;1253;1004279;-79
2024/02/14 07:48:46;;;;;;;44.80;25.70;;;;;;;-128.00;-1.00;-1.00;105626;1252;1058543;-79
2024/02/14 07:51:12;;;;;;;42.60;22.90;;;;;;;-128.00;-1.00;-1.00;105602;1253;1004735;-75
2024/02/14 07:53:39;;;;;;;58.70;29.30;;;;;;;-128.00;-1.00;-1.00;105582;1252;1004651;-74
2024/02/14 07:56:05;;;;;;;43.80;22.30;;;;;;;-128.00;-1.00;-1.00;105595;1253;1004762;-79
2024/02/14 07:58:32;;;;;;;38.70;21.40;;;;;;;-128.00;-1.00;-1.00;104973;1252;1004651;-74
2024/02/14 08:00:58;;;;;;;37.10;21.50;;;;;;;-128.00;-1.00;-1.00;103509;1252;1004040;-75
2024/02/14 08:03:25;;;;;;;35.90;20.70;;;;;;;-128.00;-1.00;-1.00;103547;1253;1003686;-79
2024/02/14 08:05:52;;;;;;;45.50;25.70;;;;;;;-128.00;-1.00;-1.00;103452;1255;1004849;-74
2024/02/14 08:08:18;;;;;;;36.20;19.80;;;;;;;-128.00;-1.00;-1.00;103563;1253;1004254;-79
2024/02/14 08:10:44;;;;;;;34.20;21.00;;;;;;;-128.00;-1.00;-1.00;103700;1253;1004539;-80
2024/02/14 08:13:15;;;;;;;35.40;20.30;;;;;;;-128.00;-1.00;-1.00;103594;1255;1004656;-79
2024/02/14 08:15:41;;;;;;;32.60;19.10;;;;;;;-128.00;-1.00;-1.00;103519;1255;1059579;-74
2024/02/14 08:18:08;;;;;;;30.30;17.90;;;;;;;-128.00;-1.00;-1.00;103562;1253;1004366;-79
2024/02/14 08:20:34;;;;;;;36.70;17.20;;;;;;;-128.00;-1.00;-1.00;103601;1252;1004372;-79
2024/02/14 08:23:01;;;;;;;34.00;17.30;;;;;;;-128.00;-1.00;-1.00;103514;1253;1004453;-79
2024/02/14 08:25:27;;;;;;;32.50;17.60;;;;;;;-128.00;-1.00;-1.00;103520;1253;1004095;-79
2024/02/14 08:27:53;;;;;;;51.30;25.50;;;;;;;-128.00;-1.00;-1.00;103444;1252;1004056;-79
2024/02/14 08:30:20;;;;;;;148.20;82.50;;;;;;;-128.00;-1.00;-1.00;103587;1251;1004340;-74
2024/02/14 08:32:47;;;;;;;59.30;34.00;;;;;;;-128.00;-1.00;-1.00;103607;1253;1003454;-79
2024/02/14 08:35:13;;;;;;;37.00;21.10;;;;;;;-128.00;-1.00;-1.00;103480;1253;1004407;-79
2024/02/14 08:37:40;;;;;;;54.70;33.00;;;;;;;-128.00;-1.00;-1.00;103502;1255;1005070;-79
2024/02/14 08:40:08;;;;;;;118.80;65.30;;;;;;;-128.00;-1.00;-1.00;103496;1253;1004638;-79
2024/02/14 08:42:34;;;;;;;72.40;41.30;;;;;;;-128.00;-1.00;-1.00;103635;1253;1004757;-79
2024/02/14 08:45:01;;;;;;;67.60;36.20;;;;;;;-128.00;-1.00;-1.00;103456;1253;1004749;-80
2024/02/14 08:47:28;;;;;;;72.90;38.20;;;;;;;-128.00;-1.00;-1.00;103570;1253;1004183;-79
2024/02/14 08:49:54;;;;;;;100.50;47.70;;;;;;;-128.00;-1.00;-1.00;103563;1253;1004760;-75
2024/02/14 08:52:21;;;;;;;114.70;55.80;;;;;;;-128.00;-1.00;-1.00;103558;1253;1004917;-80
2024/02/14 08:54:47;;;;;;;52.90;29.70;;;;;;;-128.00;-1.00;-1.00;103620;1253;1005398;-79
2024/02/14 08:57:14;;;;;;;45.80;28.10;;;;;;;-128.00;-1.00;-1.00;103443;1253;1004621;-75
2024/02/14 08:59:43;;;;;;;37.20;23.00;;;;;;;-128.00;-1.00;-1.00;103598;1253;1003773;-80
2024/02/14 09:02:09;;;;;;;30.70;18.40;;;;;;;-128.00;-1.00;-1.00;103612;1253;1058122;-80
2024/02/14 09:04:36;;;;;;;28.80;16.50;;;;;;;-128.00;-1.00;-1.00;103571;1252;1004371;-80
2024/02/14 09:07:03;;;;;;;31.40;17.10;;;;;;;-128.00;-1.00;-1.00;103466;1253;1004717;-79
2024/02/14 09:09:31;;;;;;;42.20;21.70;;;;;;;-128.00;-1.00;-1.00;103555;1253;1004401;-80
2024/02/14 09:11:57;;;;;;;33.70;20.00;;;;;;;-128.00;-1.00;-1.00;103569;1255;1004359;-80
2024/02/14 09:14:24;;;;;;;35.00;19.80;;;;;;;-128.00;-1.00;-1.00;103652;1253;1004541;-81
2024/02/14 09:16:50;;;;;;;29.40;16.40;;;;;;;-128.00;-1.00;-1.00;104109;1253;1004685;-80
2024/02/14 09:19:17;;;;;;;36.70;22.00;;;;;;;-128.00;-1.00;-1.00;105527;1253;1003257;-75
2024/02/14 09:21:43;;;;;;;25.30;15.00;;;;;;;-128.00;-1.00;-1.00;105560;1253;1003993;-75
2024/02/14 09:24:11;;;;;;;22.40;14.90;;;;;;;-128.00;-1.00;-1.00;105548;1252;1004990;-75
2024/02/14 09:26:38;;;;;;;31.70;20.50;;;;;;;-128.00;-1.00;-1.00;105596;1252;1004154;-75
2024/02/14 09:29:05;;;;;;;48.80;32.90;;;;;;;-128.00;-1.00;-1.00;105574;1252;1003644;-75
2024/02/14 09:31:31;;;;;;;56.30;35.20;;;;;;;-128.00;-1.00;-1.00;105168;1253;1004799;-75
2024/02/14 09:33:57;;;;;;;27.60;15.40;;;;;;;-128.00;-1.00;-1.00;103525;1253;1003914;-75
2024/02/14 09:36:24;;;;;;;14.80;7.50;;;;;;;-128.00;-1.00;-1.00;103451;1252;1005115;-80
2024/02/14 09:38:51;;;;;;;17.50;12.00;;;;;;;-128.00;-1.00;-1.00;103666;1253;1005150;-80
2024/02/14 09:41:23;;;;;;;399.90;180.00;;;;;;;-128.00;-1.00;-1.00;103788;1255;1004194;-80
2024/02/14 09:43:49;;;;;;;26.60;12.70;;;;;;;-128.00;-1.00;-1.00;103396;1255;1045902;-75
2024/02/14 09:46:16;;;;;;;49.90;21.50;;;;;;;-128.00;-1.00;-1.00;103261;1253;1004599;-79
2024/02/14 09:48:43;;;;;;;13.90;7.40;;;;;;;-128.00;-1.00;-1.00;103230;1253;1004281;-80
2024/02/14 09:51:10;;;;;;;14.20;6.60;;;;;;;-128.00;-1.00;-1.00;103346;1253;1004772;-80
2024/02/14 09:53:38;;;;;;;11.10;5.90;;;;;;;-128.00;-1.00;-1.00;103431;1254;1005324;-75
2024/02/14 09:56:05;;;;;;;8.70;5.00;;;;;;;-128.00;-1.00;-1.00;103278;1253;1004091;-80
2024/02/14 09:58:31;;;;;;;10.10;5.00;;;;;;;-128.00;-1.00;-1.00;103212;1254;1005070;-77
2024/02/14 10:00:58;;;;;;;10.60;6.80;;;;;;;-128.00;-1.00;-1.00;103269;1252;1003801;-80
2024/02/14 10:03:25;;;;;;;15.60;7.20;;;;;;;-128.00;-1.00;-1.00;103241;1253;1005370;-75
2024/02/14 10:05:52;;;;;;;8.50;4.50;;;;;;;-128.00;-1.00;-1.00;102914;1252;1004560;-75
2024/02/14 10:08:20;;;;;;;14.00;8.00;;;;;;;-128.00;-1.00;-1.00;103145;1253;1003653;-75
2024/02/14 10:10:47;;;;;;;22.20;6.60;;;;;;;-128.00;-1.00;-1.00;103229;1253;1005404;-80
2024/02/14 10:13:13;;;;;;;7.40;4.10;;;;;;;-128.00;-1.00;-1.00;103123;1253;1004092;-75
2024/02/14 10:15:40;;;;;;;14.10;4.30;;;;;;;-128.00;-1.00;-1.00;103202;1252;1004303;-75
2024/02/14 10:18:09;;;;;;;8.40;3.40;;;;;;;-128.00;-1.00;-1.00;103177;1252;1004612;-80
2024/02/14 10:20:40;;;;;;;;;;;;;;;-128.00;-1.00;-1.00;103423;1253;1045237;-75
2024/02/14 10:23:08;;;;;;;13.60;3.70;;;;;;;-128.00;-1.00;-1.00;104024;1253;1047431;-75
2024/02/14 10:25:36;;;;;;;15.50;5.10;;;;;;;-128.00;-1.00;-1.00;103587;1252;1004971;-75
2024/02/14 10:28:08;;;;;;;8.70;4.70;;;;;;;-128.00;-1.00;-1.00;104451;1253;1004701;-75
2024/02/14 10:30:37;;;;;;;11.10;4.20;;;;;;;-128.00;-1.00;-1.00;104022;1252;1060143;-80
2024/02/14 10:33:04;;;;;;;10.30;4.30;;;;;;;-128.00;-1.00;-1.00;103393;1253;1045981;-80
2024/02/14 10:35:34;;;;;;;82.60;45.70;;;;;;;-128.00;-1.00;-1.00;103443;1253;1004486;-75
2024/02/14 10:38:01;;;;;;;17.10;8.80;;;;;;;-128.00;-1.00;-1.00;103438;1253;1063370;-80
2024/02/14 10:40:28;;;;;;;10.70;4.90;;;;;;;-128.00;-1.00;-1.00;103536;1253;1004848;-80
2024/02/14 10:42:57;;;;;;;7.90;2.90;;;;;;;-128.00;-1.00;-1.00;103463;1253;1003986;-75
2024/02/14 10:45:27;;;;;;;27.50;5.40;;;;;;;-128.00;-1.00;-1.00;103848;1253;1045419;-75
2024/02/14 10:47:53;;;;;;;5.30;3.10;;;;;;;-128.00;-1.00;-1.00;103256;1253;1049136;-75
2024/02/14 10:50:21;;;;;;;7.20;3.20;;;;;;;-128.00;-1.00;-1.00;103340;1256;1004831;-75
2024/02/14 10:52:48;;;;;;;7.60;2.80;;;;;;;-128.00;-1.00;-1.00;103354;1252;1004044;-80
2024/02/14 10:55:16;;;;;;;5.50;2.70;;;;;;;-128.00;-1.00;-1.00;103469;1253;1004850;-81
2024/02/14 10:57:43;;;;;;;7.30;3.50;;;;;;;-128.00;-1.00;-1.00;103486;1252;1004765;-74
2024/02/14 11:00:10;;;;;;;10.70;4.70;;;;;;;-128.00;-1.00;-1.00;103425;1253;1005165;-75